Time;durP1;ratioP1;P1;durP2;ratioP2;P2;SDS_P1;SDS_P2;PMS_P1;PMS_P2;Temp;Humidity;BMP_temperature;BMP_pressure;BME280_temperature;BME280_humidity;BME280_pressure;Samples;Min_cycle;Max_cycle;Signal;HPM_P1;HPM_P2
2021/04/29 00:01:39;;;;;;;13.55;9.70;;;11.30;65.10;;;;;;4965975;28;20023;-36
2021/04/29 00:04:04;;;;;;;14.27;9.88;;;11.20;65.40;;;;;;4976967;28;20085;-38
2021/04/29 00:06:30;;;;;;;12.77;9.85;;;11.20;65.80;;;;;;4965540;28;20038;-37
2021/04/29 00:08:55;;;;;;;13.48;9.88;;;11.20;65.90;;;;;;4973992;28;20050;-39
2021/04/29 00:11:21;;;;;;;16.55;9.93;;;11.10;66.30;;;;;;4969081;28;20058;-36
2021/04/29 00:13:46;;;;;;;14.05;9.25;;;11.10;66.40;;;;;;4968019;28;20598;-35
2021/04/29 00:16:12;;;;;;;12.77;9.80;;;11.10;66.30;;;;;;4966061;28;20573;-37
2021/04/29 00:18:38;;;;;;;12.75;9.35;;;11.10;66.60;;;;;;4971165;28;20533;-34
2021/04/29 00:21:06;;;;;;;19.73;10.65;;;11.10;66.80;;;;;;4976124;28;20052;-37
2021/04/29 00:23:32;;;;;;;15.05;10.18;;;11.10;67.00;;;;;;4983039;28;20025;-37
2021/04/29 00:25:58;;;;;;;13.50;10.10;;;11.00;67.20;;;;;;4974119;28;20014;-38
2021/04/29 00:28:23;;;;;;;12.77;9.35;;;11.00;68.00;;;;;;4983330;28;20029;-34
2021/04/29 00:30:50;;;;;;;11.65;9.15;;;10.90;67.30;;;;;;4973406;28;20462;-36
2021/04/29 00:33:15;;;;;;;14.68;10.55;;;10.90;67.50;;;;;;4984774;28;20045;-37
2021/04/29 00:35:41;;;;;;;15.38;9.82;;;10.90;68.20;;;;;;4972384;28;20026;-38
2021/04/29 00:38:09;;;;;;;15.82;10.32;;;10.90;68.50;;;;;;4984785;28;20027;-38
2021/04/29 00:40:35;;;;;;;14.82;9.75;;;10.90;68.90;;;;;;4972078;28;20038;-38
2021/04/29 00:43:01;;;;;;;16.02;10.38;;;10.80;68.50;;;;;;4984465;28;20027;-35
2021/04/29 00:45:27;;;;;;;14.40;9.77;;;10.80;69.00;;;;;;4973075;28;20486;-37
2021/04/29 00:47:52;;;;;;;14.45;10.57;;;10.80;69.30;;;;;;4982970;28;20045;-38
2021/04/29 00:50:24;;;;;;;12.02;9.15;;;10.80;69.70;;;;;;4976133;28;20101;-36
2021/04/29 00:52:50;;;;;;;13.23;9.93;;;10.80;69.60;;;;;;4981873;28;20026;-38
2021/04/29 00:55:15;;;;;;;13.73;9.93;;;10.80;70.20;;;;;;4977736;28;20118;-38
2021/04/29 00:57:41;;;;;;;14.63;10.75;;;10.70;69.80;;;;;;4979487;28;20098;-35
2021/04/29 01:00:08;;;;;;;14.85;10.27;;;10.70;70.10;;;;;;4979911;28;20039;-36
2021/04/29 01:02:36;;;;;;;15.05;12.07;;;10.70;70.30;;;;;;4976880;28;20141;-37
2021/04/29 01:05:16;;;;;;;15.55;9.98;;;10.70;70.70;;;;;;4982259;28;20045;-38
2021/04/29 01:07:45;;;;;;;13.07;9.85;;;10.70;70.60;;;;;;4977153;28;20041;-37
2021/04/29 01:10:31;;;;;;;14.57;10.75;;;10.70;71.10;;;;;;4981778;28;20061;-38
2021/04/29 01:13:18;;;;;;;14.05;10.27;;;10.70;71.30;;;;;;4977240;28;20347;-38
2021/04/29 01:15:46;;;;;;;12.45;9.68;;;10.60;71.30;;;;;;4971680;28;20042;-35
2021/04/29 01:18:14;;;;;;;14.02;10.27;;;10.60;71.30;;;;;;4973892;28;20109;-37
2021/04/29 01:20:59;;;;;;;13.85;10.68;;;10.50;71.80;;;;;;4971591;28;20133;-37
2021/04/29 01:23:27;;;;;;;12.60;9.77;;;10.50;72.40;;;;;;4974698;28;20042;-37
2021/04/29 01:25:58;;;;;;;16.25;9.10;;;10.40;72.40;;;;;;4972408;28;20141;-35
2021/04/29 01:28:26;;;;;;;17.52;11.70;;;10.40;72.70;;;;;;4976820;28;20073;-35
2021/04/29 01:30:52;;;;;;;16.50;11.32;;;10.30;73.30;;;;;;4969453;28;20038;-34
2021/04/29 01:33:19;;;;;;;15.13;10.68;;;10.30;73.70;;;;;;4978540;28;20034;-37
2021/04/29 01:35:45;;;;;;;15.25;10.48;;;10.20;73.80;;;;;;4968844;28;20047;-37
2021/04/29 01:38:14;;;;;;;15.88;11.38;;;10.20;74.30;;;;;;4976495;28;20456;-38
2021/04/29 01:40:40;;;;;;;16.55;11.15;;;10.10;74.30;;;;;;4987474;28;20113;-35
2021/04/29 01:43:07;;;;;;;16.48;11.98;;;10.10;75.00;;;;;;4967788;28;20807;-35
2021/04/29 01:45:33;;;;;;;18.52;11.25;;;10.10;75.00;;;;;;4967804;28;20054;-35
2021/04/29 01:47:59;;;;;;;13.73;11.05;;;10.10;75.30;;;;;;4980179;28;20121;-38
2021/04/29 01:50:29;;;;;;;15.10;12.05;;;10.10;75.80;;;;;;4967968;28;20082;-38
2021/04/29 01:52:56;;;;;;;17.58;11.43;;;10.10;76.40;;;;;;4979586;28;20600;-38
2021/04/29 01:55:23;;;;;;;15.82;12.65;;;10.00;76.10;;;;;;4968592;28;20160;-37
2021/04/29 01:57:52;;;;;;;14.75;11.45;;;10.00;76.20;;;;;;4978589;28;20092;-38
2021/04/29 02:00:18;;;;;;;17.83;12.85;;;10.00;76.60;;;;;;4968713;28;20050;-38
2021/04/29 02:02:44;;;;;;;18.45;12.20;;;10.00;76.80;;;;;;4976287;28;20545;-38
2021/04/29 02:05:10;;;;;;;13.57;11.13;;;10.00;77.40;;;;;;4971214;28;20130;-35
2021/04/29 02:07:39;;;;;;;19.25;12.77;;;10.00;77.80;;;;;;4973817;28;20083;-37
2021/04/29 02:10:05;;;;;;;16.83;12.40;;;9.90;77.60;;;;;;4972867;28;20050;-37
2021/04/29 02:12:36;;;;;;;15.07;11.48;;;9.90;78.40;;;;;;4971173;28;20346;-36
2021/04/29 02:15:07;;;;;;;15.55;12.18;;;9.90;78.40;;;;;;4986178;28;20033;-36
2021/04/29 02:17:45;;;;;;;17.15;11.05;;;9.90;78.50;;;;;;4983780;28;20018;-37
2021/04/29 02:20:13;;;;;;;13.80;10.85;;;9.90;78.30;;;;;;4979682;28;20057;-39
2021/04/29 02:22:41;;;;;;;15.95;11.07;;;9.90;78.10;;;;;;4983893;28;20093;-38
2021/04/29 02:25:12;;;;;;;15.05;11.35;;;10.00;78.20;;;;;;4977450;28;20049;-38
2021/04/29 02:27:39;;;;;;;15.88;12.05;;;10.00;78.80;;;;;;4985526;28;20015;-37
2021/04/29 02:30:13;;;;;;;14.48;11.70;;;10.00;78.50;;;;;;4975227;28;20386;-34
2021/04/29 02:32:39;;;;;;;18.50;12.50;;;10.00;78.50;;;;;;4984655;28;20737;-36
2021/04/29 02:35:07;;;;;;;14.90;11.70;;;10.00;78.90;;;;;;4975114;28;20227;-37
2021/04/29 02:37:33;;;;;;;15.35;12.07;;;10.00;78.70;;;;;;4985300;28;20077;-38
2021/04/29 02:40:01;;;;;;;14.77;12.05;;;10.00;79.00;;;;;;4967272;28;20105;-37
2021/04/29 02:42:27;;;;;;;18.50;13.10;;;9.90;79.20;;;;;;4966458;28;20086;-38
2021/04/29 02:44:53;;;;;;;15.93;12.73;;;10.00;79.60;;;;;;4979291;28;20387;-37
2021/04/29 02:47:20;;;;;;;16.00;12.40;;;9.90;79.80;;;;;;4966709;28;20034;-37
2021/04/29 02:49:45;;;;;;;19.65;14.18;;;9.90;79.60;;;;;;4978517;28;20100;-37
2021/04/29 02:52:11;;;;;;;19.08;12.98;;;9.90;80.70;;;;;;4967153;28;20077;-35
2021/04/29 02:54:40;;;;;;;16.27;12.48;;;9.90;80.40;;;;;;4976866;28;20030;-34
2021/04/29 02:57:06;;;;;;;19.08;13.60;;;9.90;80.30;;;;;;4968699;28;20070;-36
2021/04/29 02:59:31;;;;;;;17.42;12.35;;;9.90;80.50;;;;;;4974378;28;20554;-37
2021/04/29 03:01:57;;;;;;;17.05;12.88;;;9.90;80.80;;;;;;4970857;28;20026;-37
2021/04/29 03:04:23;;;;;;;16.95;11.98;;;9.90;80.60;;;;;;4972073;28;20022;-39
2021/04/29 03:06:48;;;;;;;18.38;13.93;;;9.90;80.50;;;;;;4972964;28;20052;-36
2021/04/29 03:09:14;;;;;;;14.25;11.10;;;9.90;80.80;;;;;;4969208;28;20030;-38
2021/04/29 03:11:39;;;;;;;15.70;12.10;;;9.90;80.70;;;;;;4975432;28;20724;-38
2021/04/29 03:14:05;;;;;;;13.82;11.05;;;10.00;80.90;;;;;;4966926;28;20424;-36
2021/04/29 03:16:31;;;;;;;12.85;10.65;;;9.90;80.70;;;;;;4977298;28;20515;-38
2021/04/29 03:18:58;;;;;;;13.35;10.15;;;9.90;80.70;;;;;;4967517;28;20038;-37
2021/04/29 03:21:24;;;;;;;11.40;9.05;;;9.90;80.60;;;;;;4980757;28;20252;-37
2021/04/29 03:23:49;;;;;;;11.88;9.00;;;9.90;80.60;;;;;;4965383;28;20058;-37
2021/04/29 03:26:21;;;;;;;11.40;9.30;;;9.80;81.30;;;;;;4978681;28;20124;-38
2021/04/29 03:28:47;;;;;;;12.38;9.27;;;9.80;80.70;;;;;;4966260;28;20496;-36
2021/04/29 03:31:12;;;;;;;12.43;8.93;;;9.80;80.70;;;;;;4977756;28;20031;-38
2021/04/29 03:33:38;;;;;;;12.10;9.68;;;9.80;80.80;;;;;;4965989;28;20733;-39
2021/04/29 03:36:04;;;;;;;10.95;9.43;;;9.70;81.00;;;;;;4976388;28;20073;-38
2021/04/29 03:38:29;;;;;;;13.00;9.35;;;9.70;81.10;;;;;;4966935;28;20418;-38
2021/04/29 03:40:55;;;;;;;12.32;10.23;;;9.70;81.20;;;;;;4974008;28;20030;-35
2021/04/29 03:43:20;;;;;;;11.15;9.18;;;9.70;81.90;;;;;;4970696;28;20082;-38
2021/04/29 03:45:46;;;;;;;12.68;8.90;;;9.80;81.20;;;;;;4970625;28;20524;-33
2021/04/29 03:48:12;;;;;;;9.95;8.88;;;9.80;81.20;;;;;;4972326;28;20101;-36
2021/04/29 03:50:37;;;;;;;9.40;8.15;;;9.80;81.20;;;;;;4968499;28;20085;-38
2021/04/29 03:53:03;;;;;;;10.43;8.82;;;9.80;81.20;;;;;;4975023;28;20023;-39
2021/04/29 03:55:28;;;;;;;11.68;9.73;;;9.80;81.20;;;;;;4967227;28;20029;-38
2021/04/29 03:57:54;;;;;;;16.98;11.75;;;9.80;81.30;;;;;;4976631;28;20033;-39
2021/04/29 04:00:19;;;;;;;18.52;13.07;;;9.80;83.30;;;;;;4967056;28;20490;-39
2021/04/29 04:02:45;;;;;;;17.88;13.32;;;9.80;84.30;;;;;;4965458;28;20129;-37
2021/04/29 04:05:11;;;;;;;19.27;14.10;;;9.70;84.70;;;;;;4966045;28;20089;-36
2021/04/29 04:07:37;;;;;;;16.60;13.07;;;9.60;85.30;;;;;;4977635;28;20081;-37
2021/04/29 04:10:07;;;;;;;16.10;12.60;;;9.60;85.20;;;;;;4965883;28;20034;-38
2021/04/29 04:12:33;;;;;;;17.20;14.57;;;9.50;86.80;;;;;;4977141;28;20046;-37
2021/04/29 04:14:59;;;;;;;19.90;13.65;;;9.40;87.90;;;;;;4975789;28;20045;-37
2021/04/29 04:17:24;;;;;;;18.45;14.13;;;9.30;89.60;;;;;;4975074;28;20375;-36
2021/04/29 04:19:50;;;;;;;17.67;13.50;;;9.10;90.40;;;;;;4982668;28;20098;-38
2021/04/29 04:22:15;;;;;;;18.80;13.07;;;9.00;91.10;;;;;;4977331;28;20035;-34
2021/04/29 04:24:41;;;;;;;21.60;15.35;;;8.90;90.60;;;;;;4980489;28;20076;-35
2021/04/29 04:27:06;;;;;;;21.42;16.55;;;8.80;91.00;;;;;;4979796;28;20093;-38
2021/04/29 04:29:33;;;;;;;25.90;18.52;;;8.70;92.20;;;;;;4977885;28;20026;-38
2021/04/29 04:31:59;;;;;;;28.63;20.23;;;8.60;92.60;;;;;;4982368;28;20018;-39
2021/04/29 04:34:24;;;;;;;25.10;19.13;;;8.50;93.20;;;;;;4975529;28;20031;-37
2021/04/29 04:36:50;;;;;;;29.02;19.70;;;8.40;93.90;;;;;;4983995;28;20026;-38
2021/04/29 04:39:15;;;;;;;29.63;21.40;;;8.30;94.50;;;;;;4974696;28;20026;-35
2021/04/29 04:41:41;;;;;;;35.65;23.15;;;8.20;95.00;;;;;;4983656;28;20030;-38
2021/04/29 04:44:06;;;;;;;30.58;20.52;;;8.10;95.40;;;;;;4974508;28;20046;-38
2021/04/29 04:46:32;;;;;;;25.55;18.63;;;8.00;95.90;;;;;;4984975;28;20497;-37
2021/04/29 04:48:57;;;;;;;24.00;16.30;;;7.90;96.80;;;;;;4972128;28;20085;-36
2021/04/29 04:51:23;;;;;;;22.65;16.60;;;7.90;96.70;;;;;;4985955;28;20069;-38
2021/04/29 04:53:51;;;;;;;19.65;15.30;;;7.80;96.50;;;;;;4976043;28;20478;-37
2021/04/29 04:56:17;;;;;;;18.17;15.40;;;7.90;96.50;;;;;;4969842;28;20129;-39
2021/04/29 04:58:42;;;;;;;23.67;18.63;;;7.90;96.80;;;;;;4978924;28;20110;-38
2021/04/29 05:01:08;;;;;;;24.15;18.63;;;7.90;97.40;;;;;;4971659;28;20146;-37
2021/04/29 05:03:33;;;;;;;21.60;17.00;;;7.90;97.10;;;;;;4976259;28;20508;-39
2021/04/29 05:05:59;;;;;;;18.73;14.85;;;8.00;96.80;;;;;;4975079;28;20143;-35
2021/04/29 05:08:25;;;;;;;17.75;14.15;;;8.00;96.60;;;;;;4973634;28;20293;-39
2021/04/29 05:10:50;;;;;;;18.55;14.95;;;8.10;96.40;;;;;;4976495;28;20038;-36
2021/04/29 05:13:16;;;;;;;17.17;14.35;;;8.20;96.50;;;;;;4971096;28;20057;-39
2021/04/29 05:15:47;;;;;;;18.50;15.10;;;8.20;96.30;;;;;;4973018;28;20031;-38
2021/04/29 05:18:13;;;;;;;20.98;15.20;;;8.30;96.40;;;;;;4970827;28;20102;-39
2021/04/29 05:20:38;;;;;;;18.70;14.77;;;8.40;96.30;;;;;;4980124;28;20067;-36
2021/04/29 05:23:04;;;;;;;19.15;15.02;;;8.40;96.10;;;;;;4969917;28;20593;-37
2021/04/29 05:25:30;;;;;;;20.70;17.58;;;8.50;96.00;;;;;;4979930;28;20416;-38
2021/04/29 05:28:00;;;;;;;27.02;19.90;;;8.50;96.90;;;;;;4969189;28;20057;-36
2021/04/29 05:30:26;;;;;;;20.33;16.73;;;8.50;96.90;;;;;;4980883;28;20045;-38
2021/04/29 05:32:52;;;;;;;23.80;19.40;;;8.50;96.50;;;;;;4968609;28;20114;-39
2021/04/29 05:35:17;;;;;;;23.98;19.05;;;8.50;96.90;;;;;;4976145;28;20232;-38
2021/04/29 05:37:43;;;;;;;22.38;17.05;;;8.50;96.70;;;;;;4987853;28;20484;-39
2021/04/29 05:40:09;;;;;;;17.30;15.43;;;8.60;96.50;;;;;;4977491;28;20030;-36
2021/04/29 05:42:35;;;;;;;17.75;15.15;;;8.60;96.30;;;;;;4986416;28;20030;-37
2021/04/29 05:45:01;;;;;;;16.92;14.02;;;8.70;96.20;;;;;;4983702;28;20029;-35
2021/04/29 05:47:26;;;;;;;24.95;18.38;;;8.80;96.30;;;;;;4974048;28;20438;-39
2021/04/29 05:49:52;;;;;;;21.25;17.88;;;8.90;96.70;;;;;;4971650;28;20030;-36
2021/04/29 05:52:17;;;;;;;20.30;16.80;;;8.90;96.70;;;;;;4975622;28;20687;-36
2021/04/29 05:54:43;;;;;;;26.70;21.55;;;8.90;96.50;;;;;;4970799;28;20584;-38
2021/04/29 05:57:08;;;;;;;28.35;21.10;;;8.90;97.30;;;;;;4978276;28;20053;-37
2021/04/29 05:59:34;;;;;;;25.58;20.15;;;8.90;97.30;;;;;;4969242;28;20038;-35
2021/04/29 06:02:00;;;;;;;29.85;21.80;;;8.90;97.50;;;;;;4979607;28;20023;-36
2021/04/29 06:04:25;;;;;;;32.78;24.55;;;8.90;97.20;;;;;;4978388;28;20023;-36
2021/04/29 06:06:51;;;;;;;26.98;21.48;;;8.90;97.10;;;;;;4975191;28;20026;-39
2021/04/29 06:09:17;;;;;;;29.25;22.52;;;8.90;97.30;;;;;;4987500;28;20476;-35
2021/04/29 06:11:43;;;;;;;24.65;21.17;;;8.90;97.60;;;;;;4974599;28;20058;-39
2021/04/29 06:14:12;;;;;;;30.55;24.08;;;9.00;97.50;;;;;;4985542;28;20023;-37
2021/04/29 06:16:41;;;;;;;30.58;23.90;;;8.90;97.50;;;;;;4968850;28;20018;-38
2021/04/29 06:19:07;;;;;;;28.90;22.92;;;8.90;97.60;;;;;;4985599;28;20037;-40
2021/04/29 06:21:33;;;;;;;28.20;22.25;;;9.00;97.40;;;;;;4983264;28;20033;-39
2021/04/29 06:23:59;;;;;;;25.55;20.77;;;9.00;97.50;;;;;;4970666;28;20026;-36
2021/04/29 06:26:30;;;;;;;31.33;23.65;;;9.10;97.40;;;;;;4975215;28;20105;-40
2021/04/29 06:28:55;;;;;;;24.63;19.60;;;9.10;97.30;;;;;;4971587;28;20096;-39
2021/04/29 06:31:24;;;;;;;33.15;25.30;;;9.20;97.30;;;;;;4973813;28;20482;-39
2021/04/29 06:33:53;;;;;;;29.17;23.88;;;9.20;97.30;;;;;;4973214;28;20042;-41
2021/04/29 06:36:18;;;;;;;37.83;28.50;;;9.20;97.40;;;;;;4971708;28;20034;-40
2021/04/29 06:38:44;;;;;;;28.10;23.17;;;9.30;97.50;;;;;;4975561;28;20450;-37
2021/04/29 06:41:10;;;;;;;32.92;25.73;;;9.30;97.60;;;;;;4968887;28;20031;-39
2021/04/29 06:43:35;;;;;;;34.17;26.15;;;9.40;97.50;;;;;;4975949;28;20612;-39
2021/04/29 06:46:04;;;;;;;33.08;27.30;;;9.40;97.60;;;;;;4985803;28;20042;-38
2021/04/29 06:48:29;;;;;;;32.78;26.67;;;9.40;97.70;;;;;;4975292;28;20030;-35
2021/04/29 06:50:58;;;;;;;32.53;26.08;;;9.40;97.80;;;;;;4986395;28;20073;-37
2021/04/29 06:53:23;;;;;;;35.67;27.88;;;9.40;97.90;;;;;;4978794;28;20034;-35
2021/04/29 06:55:49;;;;;;;32.60;24.95;;;9.40;98.00;;;;;;4966680;28;20031;-34
2021/04/29 06:58:15;;;;;;;39.55;29.02;;;9.40;98.10;;;;;;4971327;28;20027;-37
2021/04/29 07:00:41;;;;;;;35.00;27.70;;;9.40;98.10;;;;;;4986139;28;20631;-37
2021/04/29 07:03:06;;;;;;;37.10;28.00;;;9.50;98.20;;;;;;4977877;28;20038;-38
2021/04/29 07:05:32;;;;;;;34.35;25.75;;;9.50;98.10;;;;;;4986432;28;20118;-36
2021/04/29 07:07:57;;;;;;;35.53;25.65;;;9.50;98.10;;;;;;4977152;28;20137;-38
2021/04/29 07:10:24;;;;;;;38.50;29.33;;;9.50;98.50;;;;;;4983319;28;20196;-39
2021/04/29 07:12:49;;;;;;;42.20;30.48;;;9.50;98.10;;;;;;4983478;28;20042;-38
2021/04/29 07:15:16;;;;;;;36.53;27.30;;;9.50;98.10;;;;;;4981595;28;20044;-37
2021/04/29 07:17:42;;;;;;;37.53;28.02;;;9.50;98.20;;;;;;4982425;28;20027;-37
2021/04/29 07:20:09;;;;;;;33.97;27.25;;;9.50;98.20;;;;;;4977994;28;20346;-39
2021/04/29 07:22:35;;;;;;;41.60;29.60;;;9.60;98.20;;;;;;4984059;28;20273;-36
2021/04/29 07:25:00;;;;;;;38.00;28.85;;;9.60;98.20;;;;;;4975705;28;20109;-37
2021/04/29 07:27:26;;;;;;;31.15;25.85;;;9.60;98.20;;;;;;4984942;28;20022;-37
2021/04/29 07:29:51;;;;;;;28.67;22.98;;;9.70;98.30;;;;;;4974654;28;20029;-38
2021/04/29 07:32:17;;;;;;;27.73;22.45;;;9.70;98.30;;;;;;4986287;28;20056;-37
2021/04/29 07:34:43;;;;;;;24.17;20.17;;;9.80;98.30;;;;;;4973967;28;20050;-36
2021/04/29 07:37:08;;;;;;;27.05;21.20;;;9.80;98.10;;;;;;4985594;28;20120;-38
2021/04/29 07:39:35;;;;;;;28.58;20.17;;;9.90;97.90;;;;;;4983265;28;20610;-35
2021/04/29 07:42:01;;;;;;;26.08;21.27;;;9.90;97.80;;;;;;4966827;28;20031;-41
2021/04/29 07:44:26;;;;;;;21.73;17.73;;;9.90;97.80;;;;;;4977206;28;20413;-36
2021/04/29 07:46:52;;;;;;;22.05;18.45;;;10.00;97.70;;;;;;4967554;28;20045;-39
2021/04/29 07:49:18;;;;;;;19.05;16.40;;;9.90;97.60;;;;;;4975158;28;20362;-35
2021/04/29 07:51:43;;;;;;;21.13;16.55;;;9.90;97.60;;;;;;4969914;28;20117;-39
2021/04/29 07:54:13;;;;;;;20.55;15.88;;;10.00;97.50;;;;;;4971624;28;20058;-36
2021/04/29 07:56:39;;;;;;;18.92;15.15;;;10.00;97.40;;;;;;4986063;28;20045;-35
2021/04/29 07:59:04;;;;;;;20.13;17.33;;;10.00;97.30;;;;;;4981732;28;20026;-37
2021/04/29 08:01:33;;;;;;;20.10;16.83;;;10.10;97.40;;;;;;4977452;28;20026;-36
2021/04/29 08:04:01;;;;;;;21.65;17.42;;;10.10;97.30;;;;;;4983372;28;20018;-37
2021/04/29 08:06:30;;;;;;;19.77;16.35;;;10.00;97.30;;;;;;4975517;28;20037;-38
2021/04/29 08:08:56;;;;;;;19.17;15.10;;;10.00;97.20;;;;;;4981795;28;20467;-38
2021/04/29 08:11:22;;;;;;;18.55;15.40;;;10.10;97.20;;;;;;4973290;28;20184;-39
2021/04/29 08:13:48;;;;;;;15.80;13.80;;;10.10;97.10;;;;;;4983674;28;20608;-39
2021/04/29 08:16:14;;;;;;;15.32;13.65;;;10.10;97.00;;;;;;4977237;28;20037;-40
2021/04/29 08:18:39;;;;;;;15.55;12.73;;;10.10;96.90;;;;;;4965500;28;20069;-39
2021/04/29 08:21:07;;;;;;;18.63;14.35;;;10.10;96.80;;;;;;4977756;28;20034;-38
2021/04/29 08:23:34;;;;;;;19.52;15.10;;;10.10;96.80;;;;;;4966436;28;20022;-39
2021/04/29 08:25:59;;;;;;;16.13;13.85;;;10.10;96.80;;;;;;4977446;28;20052;-38
2021/04/29 08:28:25;;;;;;;16.48;13.90;;;10.10;96.80;;;;;;4965620;28;20105;-38
2021/04/29 08:30:51;;;;;;;16.98;13.15;;;10.10;96.70;;;;;;4975017;28;20374;-37
2021/04/29 08:33:17;;;;;;;15.85;13.85;;;10.20;96.70;;;;;;4980164;28;20030;-35
2021/04/29 08:35:42;;;;;;;12.32;11.02;;;10.20;96.60;;;;;;4977915;28;20030;-39
2021/04/29 08:38:08;;;;;;;16.05;13.52;;;10.20;96.50;;;;;;4979632;28;20033;-39
2021/04/29 08:40:33;;;;;;;14.65;12.93;;;10.20;96.50;;;;;;4979555;28;20475;-36
2021/04/29 08:42:59;;;;;;;20.27;17.10;;;10.20;96.50;;;;;;4977165;28;20498;-37
2021/04/29 08:45:25;;;;;;;18.33;16.30;;;10.10;96.70;;;;;;4983385;28;20036;-37
2021/04/29 08:47:53;;;;;;;18.92;15.00;;;10.10;96.90;;;;;;4974336;28;20030;-39
2021/04/29 08:50:20;;;;;;;15.18;13.63;;;10.00;96.60;;;;;;4983548;28;20099;-38
2021/04/29 08:52:46;;;;;;;14.48;12.93;;;10.10;96.60;;;;;;4973849;28;20112;-38
2021/04/29 08:55:21;;;;;;;17.77;15.43;;;10.20;96.50;;;;;;4984903;28;20039;-38
2021/04/29 08:57:47;;;;;;;17.48;14.57;;;10.10;96.60;;;;;;4982464;28;20026;-37
2021/04/29 09:00:17;;;;;;;15.10;12.85;;;10.20;96.40;;;;;;4985059;28;20340;-37
2021/04/29 09:02:43;;;;;;;15.20;13.18;;;10.30;96.40;;;;;;4969330;28;20032;-38
2021/04/29 09:05:10;;;;;;;18.30;16.17;;;10.30;96.30;;;;;;4984621;28;20493;-35
2021/04/29 09:07:36;;;;;;;17.38;15.45;;;10.30;96.50;;;;;;4978408;28;20125;-38
2021/04/29 09:10:02;;;;;;;22.48;16.13;;;10.30;96.50;;;;;;4986576;28;20501;-38
2021/04/29 09:12:39;;;;;;;17.75;14.73;;;10.30;96.60;;;;;;4979772;28;20552;-38
2021/04/29 09:15:05;;;;;;;20.88;16.88;;;10.40;96.40;;;;;;4972232;28;20050;-39
2021/04/29 09:17:31;;;;;;;21.25;16.70;;;10.40;96.60;;;;;;4980403;28;20499;-38
2021/04/29 09:19:56;;;;;;;21.67;15.98;;;10.40;96.30;;;;;;4969575;28;20114;-37
2021/04/29 09:22:22;;;;;;;18.92;15.75;;;10.50;96.50;;;;;;4979344;28;20045;-38
2021/04/29 09:24:48;;;;;;;19.23;15.52;;;10.60;96.20;;;;;;4981133;28;20030;-37
2021/04/29 09:27:15;;;;;;;18.77;15.00;;;10.60;96.10;;;;;;4978317;28;20041;-39
2021/04/29 09:29:51;;;;;;;18.95;15.15;;;10.60;96.00;;;;;;4978037;28;20114;-37
2021/04/29 09:32:28;;;;;;;20.13;14.77;;;10.60;96.00;;;;;;4980229;28;20070;-38
2021/04/29 09:34:54;;;;;;;23.13;15.65;;;10.60;95.90;;;;;;4978650;28;20038;-38
2021/04/29 09:37:34;;;;;;;19.45;14.85;;;10.50;95.90;;;;;;4981081;28;20496;-37
2021/04/29 09:40:18;;;;;;;18.02;14.73;;;10.50;95.90;;;;;;4981615;28;20161;-38
2021/04/29 09:42:46;;;;;;;21.33;16.10;;;10.50;95.90;;;;;;4981782;28;20394;-39
2021/04/29 09:45:28;;;;;;;16.73;14.88;;;10.50;95.90;;;;;;4982139;28;20030;-36
2021/04/29 09:48:05;;;;;;;17.60;14.90;;;10.50;95.90;;;;;;4982521;28;20478;-39
2021/04/29 09:50:33;;;;;;;18.05;15.75;;;10.40;96.00;;;;;;4981962;28;20038;-38
2021/04/29 09:53:01;;;;;;;18.70;15.27;;;10.40;96.00;;;;;;4983528;28;20102;-38
2021/04/29 09:55:29;;;;;;;20.40;16.23;;;10.40;96.00;;;;;;4975413;28;20407;-38
2021/04/29 09:58:12;;;;;;;15.68;13.95;;;10.40;96.00;;;;;;4970609;28;20019;-38
2021/04/29 10:00:38;;;;;;;15.98;13.40;;;10.40;95.90;;;;;;4975939;28;20122;-38
2021/04/29 10:03:04;;;;;;;15.98;14.07;;;10.40;95.90;;;;;;4970530;28;20027;-39
2021/04/29 10:05:38;;;;;;;17.58;15.68;;;10.50;95.80;;;;;;4977158;28;20059;-37
2021/04/29 10:08:05;;;;;;;18.00;14.27;;;10.50;95.90;;;;;;4969784;28;20032;-38
2021/04/29 10:10:38;;;;;;;17.15;13.90;;;10.40;95.80;;;;;;4978797;28;20047;-38
2021/04/29 10:13:04;;;;;;;;;;;10.50;95.90;;;;;;4969703;28;20046;-38
2021/04/29 10:15:32;;;;;;;17.20;14.57;;;10.50;95.80;;;;;;4976588;28;20293;-39
2021/04/29 10:17:59;;;;;;;16.48;13.82;;;10.40;95.70;;;;;;4968428;28;20322;-38
2021/04/29 10:20:30;;;;;;;18.40;15.30;;;10.40;95.80;;;;;;4967937;28;20082;-37
2021/04/29 10:22:57;;;;;;;20.20;14.50;;;10.40;95.90;;;;;;4970010;28;20109;-37
2021/04/29 10:25:27;;;;;;;17.23;15.32;;;10.30;96.00;;;;;;4982027;28;20023;-39
2021/04/29 10:27:55;;;;;;;17.70;15.75;;;10.30;96.20;;;;;;4981648;28;20137;-35
2021/04/29 10:30:31;;;;;;;17.27;14.98;;;10.20;96.20;;;;;;4972401;28;20054;-36
2021/04/29 10:32:57;;;;;;;21.70;17.35;;;10.20;96.70;;;;;;4985937;28;20070;-36
2021/04/29 10:35:28;;;;;;;22.35;17.60;;;10.20;97.10;;;;;;4973950;28;20344;-38
2021/04/29 10:37:59;;;;;;;27.05;18.63;;;10.10;96.90;;;;;;4985813;28;20027;-38
2021/04/29 10:40:39;;;;;;;19.40;16.20;;;10.00;97.10;;;;;;4974346;28;20089;-39
2021/04/29 10:43:11;;;;;;;20.02;16.67;;;10.00;97.10;;;;;;4967396;28;20189;-38
2021/04/29 10:45:37;;;;;;;19.17;15.65;;;10.10;97.20;;;;;;4971173;28;20035;-37
2021/04/29 10:48:06;;;;;;;15.05;13.35;;;10.10;97.20;;;;;;4986394;28;20481;-37
2021/04/29 10:50:47;;;;;;;19.48;16.00;;;10.10;97.10;;;;;;4976317;28;20039;-37
2021/04/29 10:53:25;;;;;;;18.00;16.10;;;10.10;97.20;;;;;;4985828;28;20396;-37
2021/04/29 10:55:58;;;;;;;18.17;15.15;;;10.10;97.30;;;;;;4982990;28;20102;-37
2021/04/29 10:58:24;;;;;;;18.92;15.95;;;10.10;97.20;;;;;;4976936;28;20029;-37
2021/04/29 11:01:09;;;;;;;16.83;14.75;;;10.10;97.20;;;;;;4983904;28;20034;-36
2021/04/29 11:03:38;;;;;;;17.17;15.38;;;10.10;97.20;;;;;;4967196;28;20026;-37
2021/04/29 11:06:09;;;;;;;15.75;14.05;;;10.20;97.20;;;;;;4976996;28;20755;-35
2021/04/29 11:08:36;;;;;;;16.08;14.40;;;10.30;97.10;;;;;;4968389;28;20102;-38
2021/04/29 11:11:02;;;;;;;18.35;14.98;;;10.30;97.00;;;;;;4975362;28;20030;-36
2021/04/29 11:13:29;;;;;;;17.08;14.70;;;10.30;97.50;;;;;;4970584;28;20090;-38
2021/04/29 11:15:58;;;;;;;18.20;15.30;;;10.20;97.30;;;;;;4972211;28;20043;-34
2021/04/29 11:18:25;;;;;;;19.80;17.17;;;10.20;98.00;;;;;;4981353;28;20109;-38
2021/04/29 11:20:58;;;;;;;18.63;16.73;;;10.20;98.40;;;;;;4981183;28;20038;-38
2021/04/29 11:23:45;;;;;;;17.27;15.57;;;10.20;98.50;;;;;;4980039;28;20037;-39
2021/04/29 11:26:15;;;;;;;19.25;17.30;;;10.20;98.70;;;;;;4984651;28;20759;-35
2021/04/29 11:28:41;;;;;;;18.58;15.60;;;10.10;98.80;;;;;;4982643;28;20054;-35
2021/04/29 11:31:07;;;;;;;17.75;15.07;;;10.00;98.80;;;;;;4983744;28;20061;-37
2021/04/29 11:33:38;;;;;;;17.67;15.65;;;9.80;98.40;;;;;;4982911;28;20014;-39
2021/04/29 11:36:27;;;;;;;16.25;14.52;;;9.70;98.50;;;;;;4983175;28;20081;-35
2021/04/29 11:39:03;;;;;;;17.02;15.23;;;9.70;98.60;;;;;;4978665;28;20417;-40
2021/04/29 11:41:29;;;;;;;19.88;16.60;;;9.60;98.70;;;;;;4982459;28;20367;-36
2021/04/29 11:44:06;;;;;;;14.70;13.18;;;9.60;98.90;;;;;;4982121;28;20465;-37
2021/04/29 11:46:34;;;;;;;15.27;13.68;;;9.50;98.80;;;;;;4980293;28;20202;-36
2021/04/29 11:49:05;;;;;;;16.98;14.20;;;9.50;98.80;;;;;;4975674;28;20034;-36
2021/04/29 11:51:33;;;;;;;16.77;14.65;;;9.50;98.80;;;;;;4979706;28;20061;-36
2021/04/29 11:54:06;;;;;;;16.25;14.48;;;9.60;98.90;;;;;;4981329;28;20046;-34
2021/04/29 11:56:46;;;;;;;17.30;15.43;;;9.60;98.70;;;;;;4983392;28;20045;-39
2021/04/29 11:59:14;;;;;;;15.05;13.45;;;9.80;98.30;;;;;;4976299;28;20033;-39
2021/04/29 12:01:41;;;;;;;15.85;13.48;;;9.70;97.60;;;;;;4982376;28;20467;-37
2021/04/29 12:04:23;;;;;;;16.85;14.15;;;9.60;97.80;;;;;;4981992;28;20043;-37
2021/04/29 12:06:57;;;;;;;15.65;13.77;;;9.60;98.00;;;;;;4985447;28;20110;-38
2021/04/29 12:09:25;;;;;;;16.77;14.45;;;9.60;98.00;;;;;;4974284;28;20030;-37
2021/04/29 12:11:52;;;;;;;14.63;13.13;;;9.60;98.00;;;;;;4982605;28;20061;-37
2021/04/29 12:14:25;;;;;;;17.08;13.90;;;9.50;97.90;;;;;;4974467;28;20535;-38
2021/04/29 12:17:00;;;;;;;15.15;12.88;;;9.40;97.90;;;;;;4966055;28;20118;-34
2021/04/29 12:19:28;;;;;;;14.82;11.90;;;9.30;97.90;;;;;;4966035;28;20117;-36
2021/04/29 12:21:54;;;;;;;14.35;11.48;;;9.40;98.00;;;;;;4966043;28;20111;-37
2021/04/29 12:24:20;;;;;;;15.27;11.40;;;9.40;98.00;;;;;;4973273;28;20029;-35
2021/04/29 12:26:45;;;;;;;13.63;10.80;;;9.40;97.70;;;;;;4985372;28;20022;-39
2021/04/29 12:29:22;;;;;;;13.70;10.90;;;9.40;97.60;;;;;;4973269;28;20034;-36
2021/04/29 12:31:52;;;;;;;12.60;11.23;;;9.40;97.60;;;;;;4984604;28;20083;-39
2021/04/29 12:34:19;;;;;;;15.60;12.98;;;9.30;97.60;;;;;;4973340;28;20031;-39
2021/04/29 12:36:54;;;;;;;17.85;12.82;;;9.10;97.50;;;;;;4985310;28;20032;-39